Time;durP1;ratioP1;P1;durP2;ratioP2;P2;SDS_P1;SDS_P2;PMS_P1;PMS_P2;Temp;Humidity;BMP_temperature;BMP_pressure;BME280_temperature;BME280_humidity;BME280_pressure;Samples;Min_cycle;Max_cycle;Signal;HPM_P1;HPM_P2
2022/06/24 00:01:14;;;;;;;;;11.50;8.25;;;;;;;;4910962;29;45325;-71
2022/06/24 00:03:43;;;;;;;;;8.00;6.75;;;;;;;;4898633;28;45257;-71
2022/06/24 00:06:17;;;;;;;;;10.25;6.50;;;;;;;;4900241;29;45344;-70
2022/06/24 00:08:56;;;;;;;;;7.25;6.00;;;;;;;;4895326;29;45413;-69
2022/06/24 00:11:22;;;;;;;;;3.00;3.00;;;;;;;;4903694;29;45626;-69
2022/06/24 00:13:47;;;;;;;;;5.67;5.67;;;;;;;;4894838;28;45570;-69
2022/06/24 00:16:13;;;;;;;;;6.00;4.00;;;;;;;;4901613;29;45424;-68
2022/06/24 00:18:38;;;;;;;;;7.00;7.00;;;;;;;;4897624;28;45482;-69
2022/06/24 00:21:11;;;;;;;;;8.00;6.00;;;;;;;;4901678;28;45659;-68
2022/06/24 00:23:37;;;;;;;;;6.67;6.67;;;;;;;;4895760;28;45471;-68
2022/06/24 00:26:02;;;;;;;;;9.67;7.00;;;;;;;;4901678;28;45304;-69
2022/06/24 00:28:28;;;;;;;;;7.67;7.67;;;;;;;;4896648;28;45265;-68
2022/06/24 00:30:54;;;;;;;;;8.33;7.33;;;;;;;;4900767;28;45531;-69
2022/06/24 00:33:21;;;;;;;;;5.00;5.00;;;;;;;;4897529;29;48564;-69
2022/06/24 00:35:47;;;;;;;;;9.00;8.00;;;;;;;;4903230;28;45288;-69
2022/06/24 00:38:42;;;;;;;;;6.00;5.33;;;;;;;;4895921;28;45533;-69
2022/06/24 00:41:12;;;;;;;;;7.00;7.00;;;;;;;;4897573;28;46260;-69
2022/06/24 00:43:42;;;;;;;;;8.67;7.00;;;;;;;;4895301;28;48051;-69
2022/06/24 00:46:13;;;;;;;;;9.33;8.33;;;;;;;;4899240;29;45340;-69
2022/06/24 00:48:41;;;;;;;;;7.67;7.67;;;;;;;;4898253;28;45411;-69
2022/06/24 00:51:07;;;;;;;;;11.67;7.67;;;;;;;;4897616;29;45517;-69
2022/06/24 00:53:40;;;;;;;;;6.00;6.00;;;;;;;;4897514;29;45394;-69
2022/06/24 00:56:05;;;;;;;;;7.00;5.67;;;;;;;;4901296;29;45379;-69
2022/06/24 00:58:33;;;;;;;;;6.33;5.33;;;;;;;;4895866;28;45470;-69
2022/06/24 01:00:59;;;;;;;;;6.67;6.67;;;;;;;;4900145;29;45377;-69
2022/06/24 01:03:34;;;;;;;;;5.67;5.67;;;;;;;;4895889;29;46414;-69
2022/06/24 01:05:59;;;;;;;;;8.00;8.00;;;;;;;;4901340;29;45224;-69
2022/06/24 01:08:24;;;;;;;;;6.67;6.00;;;;;;;;4896013;29;45258;-69
2022/06/24 01:10:50;;;;;;;;;7.67;6.00;;;;;;;;4901107;28;46081;-69
2022/06/24 01:13:15;;;;;;;;;5.33;5.00;;;;;;;;4895436;28;45324;-69
2022/06/24 01:15:40;;;;;;;;;6.33;6.33;;;;;;;;4901107;28;45797;-69
2022/06/24 01:18:07;;;;;;;;;5.00;4.67;;;;;;;;4894177;29;45413;-69
2022/06/24 01:20:32;;;;;;;;;6.67;5.00;;;;;;;;4900093;28;45305;-69
2022/06/24 01:22:57;;;;;;;;;6.00;6.00;;;;;;;;4895758;28;47769;-69
2022/06/24 01:25:22;;;;;;;;;5.33;5.00;;;;;;;;4900834;28;45229;-69
2022/06/24 01:27:48;;;;;;;;;5.67;5.33;;;;;;;;4895669;28;45281;-69
2022/06/24 01:30:13;;;;;;;;;5.33;5.00;;;;;;;;4900960;28;45285;-69
2022/06/24 01:32:38;;;;;;;;;6.00;6.00;;;;;;;;4897656;28;46932;-69
2022/06/24 01:35:04;;;;;;;;;5.67;5.00;;;;;;;;4901155;29;45397;-69
2022/06/24 01:37:29;;;;;;;;;4.33;4.33;;;;;;;;4898398;28;45274;-69
2022/06/24 01:39:54;;;;;;;;;5.33;5.33;;;;;;;;4900232;28;45499;-69
2022/06/24 01:42:19;;;;;;;;;8.00;7.00;;;;;;;;4897535;28;45391;-69
2022/06/24 01:44:44;;;;;;;;;7.67;5.67;;;;;;;;4900117;29;45338;-69
2022/06/24 01:47:10;;;;;;;;;5.33;5.00;;;;;;;;4899296;29;45284;-69
2022/06/24 01:49:35;;;;;;;;;7.00;5.33;;;;;;;;4898874;29;45363;-69
2022/06/24 01:52:01;;;;;;;;;6.00;6.00;;;;;;;;4897785;29;45669;-69
2022/06/24 01:54:26;;;;;;;;;8.33;7.00;;;;;;;;4897112;29;45466;-70
2022/06/24 01:56:53;;;;;;;;;9.33;9.33;;;;;;;;4885411;29;45364;-73
2022/06/24 01:59:18;;;;;;;;;8.00;7.00;;;;;;;;4881253;29;45887;-73
2022/06/24 02:01:44;;;;;;;;;6.00;5.67;;;;;;;;4900741;29;45519;-71
2022/06/24 02:04:09;;;;;;;;;6.00;6.00;;;;;;;;4894639;29;45461;-72
2022/06/24 02:06:34;;;;;;;;;5.00;5.00;;;;;;;;4901849;28;45307;-71
2022/06/24 02:09:00;;;;;;;;;5.67;5.67;;;;;;;;4895050;28;45380;-72
2022/06/24 02:14:09;;;;;;;;;6.67;6.67;;;;;;;;4895004;29;45958;-72
2022/06/24 02:16:35;;;;;;;;;5.00;5.00;;;;;;;;4902672;28;45219;-72
2022/06/24 02:19:00;;;;;;;;;5.67;4.00;;;;;;;;4892910;28;45483;-71
2022/06/24 02:21:26;;;;;;;;;5.67;5.67;;;;;;;;4901370;29;45423;-72
2022/06/24 02:23:51;;;;;;;;;5.67;5.67;;;;;;;;4892773;29;45342;-72
2022/06/24 02:26:17;;;;;;;;;7.00;5.00;;;;;;;;4901558;29;45651;-72
2022/06/24 02:28:42;;;;;;;;;4.33;4.33;;;;;;;;4897282;29;45452;-71
2022/06/24 02:31:07;;;;;;;;;5.00;5.00;;;;;;;;4900032;28;46483;-71
2022/06/24 02:33:33;;;;;;;;;4.67;4.67;;;;;;;;4896672;28;45414;-70
2022/06/24 02:35:58;;;;;;;;;4.00;4.00;;;;;;;;4902363;28;45391;-70
2022/06/24 02:38:24;;;;;;;;;6.00;5.00;;;;;;;;4894808;28;45509;-71
2022/06/24 02:40:50;;;;;;;;;8.67;6.33;;;;;;;;4899955;28;45523;-71
2022/06/24 02:43:22;;;;;;;;;4.67;4.67;;;;;;;;4895761;29;45526;-72
2022/06/24 02:45:48;;;;;;;;;4.67;4.67;;;;;;;;4900083;28;45351;-71
2022/06/24 02:48:14;;;;;;;;;5.00;5.00;;;;;;;;4896561;28;44633;-71
2022/06/24 02:50:43;;;;;;;;;6.00;6.00;;;;;;;;4899774;28;46589;-71
2022/06/24 02:53:08;;;;;;;;;6.00;6.00;;;;;;;;4890461;29;45312;-71
2022/06/24 02:55:34;;;;;;;;;4.00;4.00;;;;;;;;4899560;28;45390;-72
2022/06/24 02:57:59;;;;;;;;;5.33;5.33;;;;;;;;4894944;28;45241;-71
2022/06/24 03:00:24;;;;;;;;;5.33;5.33;;;;;;;;4898386;29;47163;-71
2022/06/24 03:02:50;;;;;;;;;5.33;5.33;;;;;;;;4894756;28;46099;-71
2022/06/24 03:05:15;;;;;;;;;7.67;6.00;;;;;;;;4898885;28;45264;-71
2022/06/24 03:07:40;;;;;;;;;6.33;4.67;;;;;;;;4894620;28;45562;-71
2022/06/24 03:10:06;;;;;;;;;3.00;3.00;;;;;;;;4896718;29;47811;-71
2022/06/24 03:12:31;;;;;;;;;5.00;5.00;;;;;;;;4894829;28;45439;-71
2022/06/24 03:14:56;;;;;;;;;6.33;5.00;;;;;;;;4899643;28;45246;-71
2022/06/24 03:17:21;;;;;;;;;8.33;6.33;;;;;;;;4893777;29;46429;-71
2022/06/24 03:19:46;;;;;;;;;5.33;5.33;;;;;;;;4899092;29;45498;-71
2022/06/24 03:22:12;;;;;;;;;6.33;6.33;;;;;;;;4896482;28;45371;-71
2022/06/24 03:24:37;;;;;;;;;5.33;5.33;;;;;;;;4897923;29;45866;-71
2022/06/24 03:27:02;;;;;;;;;5.33;5.33;;;;;;;;4896843;29;45513;-71
2022/06/24 03:29:27;;;;;;;;;7.00;5.00;;;;;;;;4896233;29;48612;-71
2022/06/24 03:31:53;;;;;;;;;4.00;4.00;;;;;;;;4898051;28;45444;-71
2022/06/24 03:34:18;;;;;;;;;5.00;5.00;;;;;;;;4897212;29;45335;-70
2022/06/24 03:36:43;;;;;;;;;3.67;3.67;;;;;;;;4900290;28;45423;-70
2022/06/24 03:39:08;;;;;;;;;6.00;6.00;;;;;;;;4892600;29;48368;-71
2022/06/24 03:41:34;;;;;;;;;5.33;4.67;;;;;;;;4901712;28;45406;-70
2022/06/24 03:43:59;;;;;;;;;5.67;4.00;;;;;;;;4893942;29;45578;-70
2022/06/24 03:46:25;;;;;;;;;5.67;4.67;;;;;;;;4901077;29;45493;-70
2022/06/24 03:48:50;;;;;;;;;5.67;5.67;;;;;;;;4895747;28;46413;-70
2022/06/24 03:51:15;;;;;;;;;7.00;4.67;;;;;;;;4900150;29;45623;-70
2022/06/24 03:53:40;;;;;;;;;9.67;5.00;;;;;;;;4894980;28;45600;-70
2022/06/24 03:56:08;;;;;;;;;6.00;5.00;;;;;;;;4899096;29;45444;-70
2022/06/24 03:58:34;;;;;;;;;5.00;5.00;;;;;;;;4893237;28;45362;-70
2022/06/24 04:00:59;;;;;;;;;4.33;4.00;;;;;;;;4901199;28;45410;-70
2022/06/24 04:03:25;;;;;;;;;6.67;5.67;;;;;;;;4894615;28;45173;-70
2022/06/24 04:05:50;;;;;;;;;4.67;4.67;;;;;;;;4901227;28;45234;-70
2022/06/24 04:08:15;;;;;;;;;8.00;8.00;;;;;;;;4898415;29;47488;-70
2022/06/24 04:10:40;;;;;;;;;5.00;5.00;;;;;;;;4902314;28;45460;-70
2022/06/24 04:13:05;;;;;;;;;5.00;5.00;;;;;;;;4896358;28;45332;-70
2022/06/24 04:15:30;;;;;;;;;6.33;6.33;;;;;;;;4901285;28;47013;-70
2022/06/24 04:17:56;;;;;;;;;4.00;3.67;;;;;;;;4897459;28;45469;-70
2022/06/24 04:20:21;;;;;;;;;5.00;5.00;;;;;;;;4902514;28;45347;-70
2022/06/24 04:22:48;;;;;;;;;5.33;5.33;;;;;;;;4897776;28;45164;-70
2022/06/24 04:25:13;;;;;;;;;6.67;6.67;;;;;;;;4902107;28;45250;-69
2022/06/24 04:27:38;;;;;;;;;5.00;5.00;;;;;;;;4898101;28;45898;-69
2022/06/24 04:30:05;;;;;;;;;6.33;5.67;;;;;;;;4901926;28;45204;-70
2022/06/24 04:32:30;;;;;;;;;5.00;5.00;;;;;;;;4898370;28;45478;-69
2022/06/24 04:34:56;;;;;;;;;6.33;6.00;;;;;;;;4903862;29;45340;-69
2022/06/24 04:37:21;;;;;;;;;5.00;5.00;;;;;;;;4897835;28;45577;-70
2022/06/24 04:39:46;;;;;;;;;6.67;6.67;;;;;;;;4900273;29;45638;-70
2022/06/24 04:42:11;;;;;;;;;5.33;5.33;;;;;;;;4901143;28;45332;-69
2022/06/24 04:44:36;;;;;;;;;5.00;5.00;;;;;;;;4899083;29;45489;-70
2022/06/24 04:47:02;;;;;;;;;6.67;6.67;;;;;;;;4900818;28;45727;-69
2022/06/24 04:49:27;;;;;;;;;7.00;7.00;;;;;;;;4899949;29;45284;-69
2022/06/24 04:51:52;;;;;;;;;10.00;7.00;;;;;;;;4902051;28;45398;-69
2022/06/24 04:54:18;;;;;;;;;7.33;7.00;;;;;;;;4897476;29;45397;-69
2022/06/24 04:56:43;;;;;;;;;6.00;6.00;;;;;;;;4902333;28;47271;-69
2022/06/24 04:59:08;;;;;;;;;6.33;5.67;;;;;;;;4896655;28;45449;-70
2022/06/24 05:01:34;;;;;;;;;10.33;8.67;;;;;;;;4903953;28;45347;-69
2022/06/24 05:04:00;;;;;;;;;6.33;6.33;;;;;;;;4895846;28;45276;-70
2022/06/24 05:06:25;;;;;;;;;8.00;8.00;;;;;;;;4903288;29;45412;-69
2022/06/24 05:08:50;;;;;;;;;7.00;6.67;;;;;;;;4896486;29;45257;-69
2022/06/24 05:11:15;;;;;;;;;6.67;6.67;;;;;;;;4902281;29;45455;-69
2022/06/24 05:13:42;;;;;;;;;7.33;7.00;;;;;;;;4896097;29;46136;-69
2022/06/24 05:16:07;;;;;;;;;7.00;6.67;;;;;;;;4900890;28;46166;-70
2022/06/24 05:18:32;;;;;;;;;6.00;6.00;;;;;;;;4895236;29;45534;-69
2022/06/24 05:20:58;;;;;;;;;8.00;7.67;;;;;;;;4901513;28;45684;-70
2022/06/24 05:23:23;;;;;;;;;6.33;6.00;;;;;;;;4893728;28;45427;-69
2022/06/24 05:25:48;;;;;;;;;6.00;6.00;;;;;;;;4900029;28;46610;-69
2022/06/24 05:28:13;;;;;;;;;6.00;6.00;;;;;;;;4896369;28;45402;-69
2022/06/24 05:30:38;;;;;;;;;6.67;6.67;;;;;;;;4901236;28;45547;-69
2022/06/24 05:33:04;;;;;;;;;8.00;8.00;;;;;;;;4896778;28;45547;-70
2022/06/24 05:35:29;;;;;;;;;6.67;6.67;;;;;;;;4900967;28;45580;-69
2022/06/24 05:37:54;;;;;;;;;7.33;7.00;;;;;;;;4897366;28;46425;-70
2022/06/24 05:40:20;;;;;;;;;6.33;6.33;;;;;;;;4900436;28;45419;-69
2022/06/24 05:42:45;;;;;;;;;7.67;6.67;;;;;;;;4897793;29;45479;-69
2022/06/24 05:45:10;;;;;;;;;7.00;6.67;;;;;;;;4900901;29;45733;-69
2022/06/24 05:47:36;;;;;;;;;9.00;7.00;;;;;;;;4898356;28;45562;-69
2022/06/24 05:50:01;;;;;;;;;5.67;4.00;;;;;;;;4899537;29;45475;-69
2022/06/24 05:55:10;;;;;;;;;9.00;9.00;;;;;;;;4895650;29;45546;-69
2022/06/24 05:57:35;;;;;;;;;9.33;8.67;;;;;;;;4896605;28;45418;-69
2022/06/24 06:00:00;;;;;;;;;7.33;6.33;;;;;;;;4899568;28;45464;-69
2022/06/24 06:02:26;;;;;;;;;8.00;7.00;;;;;;;;4896744;29;45582;-69
2022/06/24 06:04:51;;;;;;;;;6.33;6.33;;;;;;;;4900738;28;46288;-69
2022/06/24 06:07:16;;;;;;;;;7.00;6.67;;;;;;;;4895909;29;45472;-69
2022/06/24 06:09:41;;;;;;;;;2.67;2.67;;;;;;;;4900526;29;45416;-68
2022/06/24 06:12:07;;;;;;;;;10.00;10.00;;;;;;;;4897563;28;45515;-69
2022/06/24 06:14:32;;;;;;;;;9.00;8.00;;;;;;;;4895681;29;47429;-69
2022/06/24 06:16:57;;;;;;;;;7.00;6.67;;;;;;;;4898871;28;45329;-69
2022/06/24 06:19:22;;;;;;;;;7.00;6.67;;;;;;;;4870306;29;45259;-69
2022/06/24 06:21:47;;;;;;;;;7.67;6.67;;;;;;;;4888551;29;45368;-69
2022/06/24 06:24:13;;;;;;;;;7.67;7.33;;;;;;;;4891222;29;45728;-69
2022/06/24 06:26:38;;;;;;;;;9.00;7.00;;;;;;;;4898177;29;45390;-69
2022/06/24 06:29:04;;;;;;;;;6.00;5.00;;;;;;;;4886876;28;46540;-69
2022/06/24 06:31:29;;;;;;;;;5.67;5.67;;;;;;;;4896859;29;45394;-70
2022/06/24 06:33:55;;;;;;;;;6.33;6.00;;;;;;;;4879857;29;47040;-70
2022/06/24 06:36:20;;;;;;;;;7.00;7.00;;;;;;;;4896299;29;45329;-69
2022/06/24 06:38:46;;;;;;;;;6.33;6.33;;;;;;;;4895219;29;45329;-69
2022/06/24 06:41:11;;;;;;;;;6.00;5.00;;;;;;;;4891007;28;45256;-69
2022/06/24 06:43:38;;;;;;;;;6.33;5.33;;;;;;;;4879559;29;46788;-69
2022/06/24 06:46:03;;;;;;;;;7.33;7.33;;;;;;;;4891955;28;45308;-69
2022/06/24 06:48:28;;;;;;;;;5.00;5.00;;;;;;;;4879372;29;45366;-70
2022/06/24 06:50:55;;;;;;;;;4.67;4.67;;;;;;;;4889328;29;45256;-69
2022/06/24 06:53:20;;;;;;;;;7.33;6.00;;;;;;;;4882299;28;45840;-70
2022/06/24 06:55:45;;;;;;;;;8.00;5.00;;;;;;;;4890275;28;45400;-69
2022/06/24 06:58:11;;;;;;;;;7.33;6.67;;;;;;;;4884126;29;45321;-69
2022/06/24 07:00:36;;;;;;;;;6.33;5.33;;;;;;;;4882957;29;45421;-69
2022/06/24 07:03:01;;;;;;;;;7.67;5.67;;;;;;;;4879784;29;48120;-69
2022/06/24 07:05:26;;;;;;;;;5.33;5.33;;;;;;;;4887774;29;45321;-69
2022/06/24 07:07:51;;;;;;;;;6.00;6.00;;;;;;;;4883846;29;45415;-69
2022/06/24 07:10:17;;;;;;;;;5.00;5.00;;;;;;;;4894189;28;45329;-70
2022/06/24 07:12:42;;;;;;;;;6.00;5.00;;;;;;;;4887044;29;48263;-69
2022/06/24 07:15:08;;;;;;;;;6.33;5.33;;;;;;;;4885136;29;45617;-69
2022/06/24 07:17:33;;;;;;;;;3.00;3.00;;;;;;;;4888148;28;45291;-69
2022/06/24 07:19:59;;;;;;;;;5.67;5.67;;;;;;;;4885626;29;45454;-69
2022/06/24 07:22:24;;;;;;;;;6.67;6.67;;;;;;;;4884816;29;45830;-69
2022/06/24 07:24:49;;;;;;;;;5.00;5.00;;;;;;;;4896192;29;45332;-69
2022/06/24 07:27:15;;;;;;;;;7.33;6.67;;;;;;;;4888430;28;45677;-69
2022/06/24 07:29:40;;;;;;;;;5.00;5.00;;;;;;;;4890838;29;45432;-69
2022/06/24 07:32:06;;;;;;;;;6.00;5.00;;;;;;;;4896409;28;46486;-69
2022/06/24 07:34:32;;;;;;;;;6.67;6.67;;;;;;;;4877190;29;45404;-69
2022/06/24 07:36:57;;;;;;;;;6.00;6.00;;;;;;;;4891641;29;45245;-70
2022/06/24 07:39:23;;;;;;;;;6.00;6.00;;;;;;;;4892236;29;46688;-69
2022/06/24 07:41:48;;;;;;;;;5.67;5.67;;;;;;;;4902065;29;47217;-70
2022/06/24 07:44:13;;;;;;;;;5.67;5.67;;;;;;;;4876360;29;45420;-69
2022/06/24 07:46:39;;;;;;;;;4.67;4.67;;;;;;;;4880215;29;45279;-69
2022/06/24 07:49:04;;;;;;;;;7.00;7.00;;;;;;;;4875680;29;45548;-69
2022/06/24 07:51:29;;;;;;;;;5.33;5.00;;;;;;;;4881305;29;45501;-69
2022/06/24 07:53:54;;;;;;;;;4.00;4.00;;;;;;;;4879236;29;45277;-69
2022/06/24 07:59:04;;;;;;;;;6.33;6.33;;;;;;;;4888804;29;45424;-69
2022/06/24 08:01:29;;;;;;;;;5.33;5.00;;;;;;;;4893768;29;45428;-69
2022/06/24 08:03:55;;;;;;;;;7.00;5.67;;;;;;;;4889535;28;45348;-70
2022/06/24 08:06:20;;;;;;;;;8.00;6.67;;;;;;;;4895522;29;45413;-69
2022/06/24 08:08:45;;;;;;;;;8.00;6.67;;;;;;;;4890316;29;46022;-69
2022/06/24 08:11:10;;;;;;;;;7.33;5.67;;;;;;;;4892992;29;46152;-69
2022/06/24 08:13:36;;;;;;;;;5.50;5.25;;;;;;;;4881959;28;45446;-69
2022/06/24 08:16:01;;;;;;;;;6.00;6.00;;;;;;;;4897038;29;45595;-70
2022/06/24 08:18:27;;;;;;;;;6.00;5.00;;;;;;;;4888019;28;46569;-68
2022/06/24 08:20:52;;;;;;;;;4.00;4.00;;;;;;;;4891611;29;46699;-71
2022/06/24 08:23:17;;;;;;;;;5.50;4.75;;;;;;;;4887986;29;45451;-68
2022/06/24 08:25:42;;;;;;;;;7.00;5.75;;;;;;;;4895288;29;45360;-69
2022/06/24 08:28:07;;;;;;;;;5.00;5.00;;;;;;;;4896803;28;45427;-68
2022/06/24 08:30:34;;;;;;;;;5.75;5.75;;;;;;;;4891058;28;46547;-68
2022/06/24 08:32:59;;;;;;;;;4.00;4.00;;;;;;;;4882106;29;45548;-68
2022/06/24 08:35:24;;;;;;;;;4.50;4.50;;;;;;;;4886239;29;45451;-68
2022/06/24 08:37:50;;;;;;;;;5.25;3.75;;;;;;;;4894102;28;45594;-68
2022/06/24 08:40:16;;;;;;;;;5.00;4.00;;;;;;;;4880312;29;45585;-68
2022/06/24 08:42:43;;;;;;;;;5.00;5.00;;;;;;;;4880752;29;45288;-67
2022/06/24 08:45:10;;;;;;;;;5.00;5.00;;;;;;;;4870892;29;45459;-68
2022/06/24 08:47:35;;;;;;;;;4.25;2.75;;;;;;;;4882277;28;45616;-68
2022/06/24 08:50:00;;;;;;;;;1.75;1.75;;;;;;;;4872671;29;45514;-69
2022/06/24 08:52:25;;;;;;;;;3.00;3.00;;;;;;;;4887127;29;45840;-68
2022/06/24 08:54:51;;;;;;;;;4.50;2.25;;;;;;;;4888399;29;45532;-69
2022/06/24 08:57:17;;;;;;;;;3.00;3.00;;;;;;;;4890348;28;45459;-68
2022/06/24 08:59:46;;;;;;;;;6.25;5.00;;;;;;;;4887207;29;46401;-69
2022/06/24 09:02:15;;;;;;;;;2.00;2.00;;;;;;;;4885786;29;45463;-69
2022/06/24 09:04:43;;;;;;;;;2.00;2.00;;;;;;;;4884751;29;45273;-69
2022/06/24 09:07:16;;;;;;;;;3.00;1.75;;;;;;;;4895590;28;45283;-69
2022/06/24 09:09:41;;;;;;;;;3.00;3.00;;;;;;;;4892212;29;45426;-69
2022/06/24 09:12:07;;;;;;;;;3.25;3.25;;;;;;;;4898566;28;45407;-69
2022/06/24 09:14:46;;;;;;;;;2.50;2.50;;;;;;;;4869859;29;45431;-70
2022/06/24 09:17:11;;;;;;;;;2.00;2.00;;;;;;;;4882239;29;45459;-69
2022/06/24 09:19:37;;;;;;;;;2.25;2.25;;;;;;;;4879422;29;46152;-69
2022/06/24 09:22:02;;;;;;;;;2.75;2.00;;;;;;;;4894456;29;46332;-68
2022/06/24 09:24:47;;;;;;;;;2.75;2.75;;;;;;;;4886301;29;45416;-72
2022/06/24 09:27:13;;;;;;;;;4.25;2.00;;;;;;;;4891046;28;45512;-72
2022/06/24 09:29:45;;;;;;;;;4.00;2.25;;;;;;;;4875190;29;46711;-71
2022/06/24 09:32:10;;;;;;;;;2.20;2.00;;;;;;;;4885170;29;45299;-71
2022/06/24 09:34:35;;;;;;;;;2.00;2.00;;;;;;;;4886638;29;45333;-71
2022/06/24 09:37:01;;;;;;;;;2.75;2.75;;;;;;;;4893539;28;45417;-70
2022/06/24 09:39:26;;;;;;;;;1.50;1.50;;;;;;;;4880301;28;45261;-71
2022/06/24 09:41:55;;;;;;;;;4.00;3.00;;;;;;;;4889835;29;45351;-70
2022/06/24 09:44:20;;;;;;;;;2.25;2.25;;;;;;;;4878969;29;45380;-70
2022/06/24 09:46:46;;;;;;;;;2.00;2.00;;;;;;;;4891662;29;45492;-70
2022/06/24 09:49:13;;;;;;;;;1.75;1.75;;;;;;;;4882610;29;46127;-70
2022/06/24 09:51:40;;;;;;;;;1.40;1.40;;;;;;;;4895630;29;45325;-70
2022/06/24 09:54:06;;;;;;;;;2.80;1.60;;;;;;;;4889590;29;45505;-70
2022/06/24 09:56:31;;;;;;;;;1.00;1.00;;;;;;;;4897292;29;45554;-70
2022/06/24 10:01:42;;;;;;;;;1.00;1.00;;;;;;;;4896211;28;45562;-69
2022/06/24 10:04:08;;;;;;;;;3.50;1.75;;;;;;;;4877493;29;45485;-70
2022/06/24 10:06:35;;;;;;;;;1.80;1.80;;;;;;;;4887413;29;45408;-70
2022/06/24 10:09:02;;;;;;;;;1.20;1.20;;;;;;;;4895769;28;45903;-70
2022/06/24 10:11:28;;;;;;;;;2.20;1.20;;;;;;;;4898352;28;45324;-70
2022/06/24 10:13:54;;;;;;;;;1.25;1.25;;;;;;;;4884332;28;45444;-70
2022/06/24 10:16:20;;;;;;;;;2.20;1.00;;;;;;;;4895888;29;45570;-70
2022/06/24 10:18:48;;;;;;;;;1.00;1.00;;;;;;;;4881528;29;47089;-70
2022/06/24 10:21:16;;;;;;;;;1.60;0.60;;;;;;;;4896463;29;45272;-70
2022/06/24 10:23:48;;;;;;;;;1.40;1.40;;;;;;;;4886481;28;45555;-70
2022/06/24 10:26:14;;;;;;;;;0.80;0.40;;;;;;;;4889806;29;45588;-70
2022/06/24 10:28:57;;;;;;;;;1.25;0.25;;;;;;;;4889008;28;46014;-69
2022/06/24 10:31:53;;;;;;;;;1.20;0.80;;;;;;;;4878699;29;45458;-70
2022/06/24 10:34:20;;;;;;;;;1.60;1.60;;;;;;;;4875893;29;45179;-69
2022/06/24 10:36:45;;;;;;;;;2.20;1.20;;;;;;;;4884596;29;45479;-69
2022/06/24 10:39:11;;;;;;;;;1.75;1.75;;;;;;;;4888976;29;46153;-70
2022/06/24 10:41:37;;;;;;;;;1.00;0.20;;;;;;;;4902771;28;45307;-70
2022/06/24 10:44:21;;;;;;;;;0.20;0.20;;;;;;;;4880741;28;45341;-69
2022/06/24 10:46:46;;;;;;;;;2.60;1.20;;;;;;;;4888311;29;45516;-71
2022/06/24 10:49:11;;;;;;;;;0.00;0.00;;;;;;;;4882185;29;45636;-70
2022/06/24 10:51:36;;;;;;;;;0.25;0.25;;;;;;;;4897208;29;45371;-70
2022/06/24 10:54:01;;;;;;;;;0.75;0.75;;;;;;;;4892310;28;45450;-70
2022/06/24 10:56:39;;;;;;;;;1.00;1.00;;;;;;;;4899499;29;45585;-70
2022/06/24 10:59:04;;;;;;;;;0.80;0.80;;;;;;;;4878311;29;46763;-70
2022/06/24 11:01:30;;;;;;;;;1.00;1.00;;;;;;;;4882755;29;45296;-70
2022/06/24 11:03:56;;;;;;;;;0.40;0.40;;;;;;;;4884042;28;45427;-69
2022/06/24 11:06:21;;;;;;;;;2.00;2.00;;;;;;;;4883229;29;46275;-69
2022/06/24 11:08:46;;;;;;;;;2.75;1.75;;;;;;;;4884636;29;46220;-70
2022/06/24 11:11:24;;;;;;;;;0.75;0.25;;;;;;;;4889500;29;45456;-72
2022/06/24 11:13:50;;;;;;;;;1.60;1.60;;;;;;;;4892069;28;45393;-70
2022/06/24 11:16:16;;;;;;;;;1.50;1.50;;;;;;;;4900431;29;45357;-69
2022/06/24 11:18:42;;;;;;;;;1.25;0.25;;;;;;;;4895442;28;46270;-70
2022/06/24 11:21:08;;;;;;;;;2.00;1.40;;;;;;;;4898065;29;45419;-70
2022/06/24 11:23:34;;;;;;;;;3.25;2.00;;;;;;;;4893656;28;45561;-70
2022/06/24 11:26:01;;;;;;;;;1.00;1.00;;;;;;;;4898722;29;45489;-71
2022/06/24 11:28:28;;;;;;;;;2.00;2.00;;;;;;;;4882250;28;45299;-70
2022/06/24 11:30:53;;;;;;;;;5.00;2.75;;;;;;;;4889319;29;45451;-71
2022/06/24 11:33:19;;;;;;;;;2.00;2.00;;;;;;;;4894195;28;46399;-71
2022/06/24 11:35:45;;;;;;;;;1.75;1.75;;;;;;;;4899950;29;45601;-71
2022/06/24 11:38:11;;;;;;;;;2.00;2.00;;;;;;;;4882402;28;46376;-70
2022/06/24 11:40:36;;;;;;;;;3.00;3.00;;;;;;;;4870853;29;45355;-70
2022/06/24 11:43:02;;;;;;;;;4.50;3.50;;;;;;;;4880532;29;45404;-70
2022/06/24 11:45:32;;;;;;;;;2.00;2.00;;;;;;;;4893672;29;45399;-70
2022/06/24 11:47:57;;;;;;;;;1.25;1.25;;;;;;;;4891133;28;46549;-70
2022/06/24 11:50:23;;;;;;;;;1.75;1.25;;;;;;;;4889350;29;45324;-70
2022/06/24 11:52:48;;;;;;;;;1.75;1.75;;;;;;;;4882702;28;45321;-70
2022/06/24 11:55:24;;;;;;;;;3.00;1.75;;;;;;;;4885472;29;45532;-71
2022/06/24 11:57:53;;;;;;;;;2.25;2.25;;;;;;;;4881121;29;46357;-71
2022/06/24 12:00:18;;;;;;;;;1.50;1.50;;;;;;;;4882517;29;45327;-70
2022/06/24 12:02:44;;;;;;;;;1.75;1.75;;;;;;;;4871020;29;45488;-70
2022/06/24 12:05:09;;;;;;;;;1.50;1.00;;;;;;;;4886356;29;45289;-70
2022/06/24 12:07:34;;;;;;;;;0.00;0.00;;;;;;;;4888065;29;45423;-70
2022/06/24 12:09:59;;;;;;;;;1.00;1.00;;;;;;;;4898416;28;45297;-70
2022/06/24 12:12:25;;;;;;;;;1.50;1.50;;;;;;;;4894752;28;45410;-70
2022/06/24 12:14:53;;;;;;;;;1.00;1.00;;;;;;;;4898720;28;44859;-70
2022/06/24 12:17:19;;;;;;;;;1.00;1.00;;;;;;;;4894924;28;46576;-71
2022/06/24 12:20:04;;;;;;;;;0.75;0.75;;;;;;;;4898472;29;45364;-72
2022/06/24 12:22:30;;;;;;;;;2.25;1.00;;;;;;;;4892539;29;45261;-72
2022/06/24 12:25:06;;;;;;;;;2.00;2.00;;;;;;;;4898783;28;45772;-72
2022/06/24 12:27:35;;;;;;;;;1.00;1.00;;;;;;;;4897316;29;46715;-71
2022/06/24 12:30:00;;;;;;;;;1.00;1.00;;;;;;;;4893488;28;45399;-71
2022/06/24 12:32:26;;;;;;;;;1.75;1.75;;;;;;;;4894731;29;45312;-71
2022/06/24 12:34:57;;;;;;;;;1.00;1.00;;;;;;;;4882113;29;45360;-71
2022/06/24 12:37:22;;;;;;;;;2.00;2.00;;;;;;;;4895091;29;45374;-71
2022/06/24 12:39:47;;;;;;;;;0.75;0.75;;;;;;;;4884640;29;45309;-71
2022/06/24 12:42:14;;;;;;;;;2.25;2.25;;;;;;;;4883705;29;45336;-71
2022/06/24 12:44:40;;;;;;;;;1.00;1.00;;;;;;;;4879762;29;45660;-71
2022/06/24 12:52:38;;;;;;;;;0.80;0.80;;;;;;;;4888109;29;45479;-72
2022/06/24 12:55:05;;;;;;;;;1.00;1.00;;;;;;;;4898521;29;45310;-71
2022/06/24 12:57:30;;;;;;;;;1.60;1.60;;;;;;;;4897764;29;46216;-72
2022/06/24 12:59:55;;;;;;;;;0.75;0.75;;;;;;;;4900668;29;45244;-72
2022/06/24 13:02:20;;;;;;;;;0.25;0.25;;;;;;;;4897545;28;45665;-72
2022/06/24 13:04:45;;;;;;;;;0.00;0.00;;;;;;;;4905925;28;46337;-72
2022/06/24 13:07:11;;;;;;;;;0.25;0.25;;;;;;;;4895658;28;45378;-71
2022/06/24 13:09:36;;;;;;;;;3.00;1.00;;;;;;;;4887031;29;45454;-72
2022/06/24 13:12:02;;;;;;;;;1.00;1.00;;;;;;;;4900507;28;45347;-71
2022/06/24 13:14:28;;;;;;;;;1.80;1.80;;;;;;;;4873335;29;45689;-72
2022/06/24 13:16:53;;;;;;;;;2.00;1.25;;;;;;;;4886078;29;46398;-71
2022/06/24 13:19:18;;;;;;;;;1.50;1.00;;;;;;;;4878978;29;45308;-72
2022/06/24 13:21:44;;;;;;;;;0.25;0.25;;;;;;;;4903481;28;46537;-71
2022/06/24 13:24:09;;;;;;;;;3.00;1.25;;;;;;;;4883592;28;45586;-71
2022/06/24 13:26:34;;;;;;;;;1.75;0.75;;;;;;;;4893698;29;46565;-71
2022/06/24 13:29:00;;;;;;;;;2.75;2.75;;;;;;;;4879504;28;45260;-71
2022/06/24 13:31:25;;;;;;;;;2.00;2.00;;;;;;;;4898398;29;45304;-71
2022/06/24 13:33:50;;;;;;;;;1.00;1.00;;;;;;;;4882490;29;45526;-70
2022/06/24 13:36:15;;;;;;;;;4.00;2.00;;;;;;;;4892110;28;46756;-71
2022/06/24 13:38:41;;;;;;;;;1.00;1.00;;;;;;;;4884455;28;45333;-71
2022/06/24 13:41:06;;;;;;;;;2.00;1.00;;;;;;;;4893586;29;45248;-71
2022/06/24 13:43:32;;;;;;;;;6.75;6.75;;;;;;;;4877406;28;45940;-71
2022/06/24 13:45:57;;;;;;;;;1.75;1.75;;;;;;;;4893564;29;45428;-71
2022/06/24 13:48:22;;;;;;;;;0.50;0.50;;;;;;;;4884651;28;45344;-70
2022/06/24 13:50:47;;;;;;;;;1.50;1.50;;;;;;;;4878954;29;45281;-71
2022/06/24 13:53:13;;;;;;;;;1.75;1.00;;;;;;;;4879113;29;45681;-70
2022/06/24 13:55:38;;;;;;;;;1.25;1.25;;;;;;;;4891852;29;45408;-70
2022/06/24 13:58:03;;;;;;;;;1.00;1.00;;;;;;;;4886342;28;45571;-70
2022/06/24 14:00:28;;;;;;;;;0.75;0.75;;;;;;;;4886166;29;45452;-70
2022/06/24 14:02:54;;;;;;;;;1.00;1.00;;;;;;;;4887720;29;45524;-69
2022/06/24 14:05:19;;;;;;;;;1.00;1.00;;;;;;;;4892538;29;46851;-70
2022/06/24 14:07:44;;;;;;;;;2.00;1.00;;;;;;;;4889451;29;45368;-70
2022/06/24 14:10:09;;;;;;;;;1.00;1.00;;;;;;;;4887520;29;45271;-70
2022/06/24 14:12:35;;;;;;;;;1.25;1.00;;;;;;;;4897356;28;45216;-70
2022/06/24 14:15:00;;;;;;;;;1.25;1.25;;;;;;;;4899515;28;45475;-70
2022/06/24 14:17:25;;;;;;;;;0.25;0.25;;;;;;;;4897510;28;45428;-70
2022/06/24 14:19:50;;;;;;;;;0.50;0.50;;;;;;;;4899938;29;45423;-70
2022/06/24 14:22:16;;;;;;;;;2.00;2.00;;;;;;;;4897285;29;45420;-70
2022/06/24 14:24:41;;;;;;;;;0.25;0.25;;;;;;;;4892327;29;45550;-70
2022/06/24 14:27:07;;;;;;;;;2.00;1.25;;;;;;;;4897127;29;45245;-70
2022/06/24 14:29:34;;;;;;;;;2.20;0.80;;;;;;;;4896661;29;45479;-70
2022/06/24 14:31:59;;;;;;;;;0.80;0.80;;;;;;;;4899995;29;45444;-70
2022/06/24 14:34:25;;;;;;;;;2.75;2.75;;;;;;;;4882694;29;46340;-70
2022/06/24 14:36:50;;;;;;;;;1.00;1.00;;;;;;;;4901587;29;45389;-70
2022/06/24 14:42:00;;;;;;;;;0.80;0.80;;;;;;;;4900564;29;45451;-72
2022/06/24 14:44:25;;;;;;;;;3.25;2.00;;;;;;;;4885022;29;46670;-70
2022/06/24 14:46:50;;;;;;;;;1.75;1.75;;;;;;;;4889868;29;45341;-70
2022/06/24 14:49:16;;;;;;;;;3.75;0.50;;;;;;;;4870151;29;45430;-70
2022/06/24 14:51:41;;;;;;;;;1.25;1.25;;;;;;;;4884963;29;46268;-70
2022/06/24 14:54:06;;;;;;;;;1.00;1.00;;;;;;;;4878780;28;45262;-71
2022/06/24 14:56:31;;;;;;;;;2.00;2.00;;;;;;;;4911704;28;45350;-72